Time;durP1;ratioP1;P1;durP2;ratioP2;P2;SDS_P1;SDS_P2;PMS_P1;PMS_P2;Temp;Humidity;BMP_temperature;BMP_pressure;BME280_temperature;BME280_humidity;BME280_pressure;Samples;Min_cycle;Max_cycle;Signal;HPM_P1;HPM_P2
2021/11/28 00:02:25;;;;;;;10.05;7.70;;;;;;;1.89;89.43;94560.99;1732861;82;21022;-81
2021/11/28 00:04:52;;;;;;;6.15;4.65;;;;;;;2.10;89.36;94594.42;1742419;81;21312;-81
2021/11/28 00:12:40;;;;;;;6.87;4.55;;;;;;;2.31;89.45;94600.19;1727834;82;21091;-82
2021/11/28 00:14:57;;;;;;;4.40;3.60;;;;;;;2.36;89.36;94596.13;1729180;82;21015;-82
2021/11/28 00:17:23;;;;;;;5.78;3.40;;;;;;;2.40;89.31;94602.48;1730001;82;21035;-81
2021/11/28 00:19:49;;;;;;;7.75;5.20;;;;;;;2.43;89.24;94597.98;1743014;82;21333;-82
2021/11/28 00:22:15;;;;;;;6.12;4.92;;;;;;;2.45;89.33;94617.37;1731971;82;21424;-82
2021/11/28 00:24:40;;;;;;;5.80;4.67;;;;;;;2.45;89.24;94613.52;1727470;82;21070;-82
2021/11/28 00:27:06;;;;;;;8.45;5.95;;;;;;;2.40;88.97;94620.43;1743572;82;21340;-82
2021/11/28 00:29:33;;;;;;;8.00;4.70;;;;;;;2.39;88.87;94621.89;1734763;82;20987;-82
2021/11/28 00:31:59;;;;;;;7.50;6.17;;;;;;;2.40;88.88;94626.05;1732765;82;21402;-82
2021/11/28 00:34:25;;;;;;;10.38;6.25;;;;;;;2.41;88.90;94628.92;1714913;82;20956;-81
2021/11/28 00:36:51;;;;;;;7.08;5.50;;;;;;;2.39;88.88;94624.45;1728506;82;21075;-82
2021/11/28 00:39:17;;;;;;;6.50;4.25;;;;;;;2.35;88.73;94624.50;1735574;82;21350;-82
2021/11/28 00:41:42;;;;;;;8.95;6.28;;;;;;;2.32;88.68;94628.70;1737281;82;20984;-82
2021/11/28 00:44:08;;;;;;;10.43;7.47;;;;;;;2.29;88.56;94633.69;1723131;82;20967;-82
2021/11/28 00:46:34;;;;;;;14.40;9.78;;;;;;;2.27;88.33;94630.47;1730477;82;21036;-81
2021/11/28 00:49:03;;;;;;;45.08;21.10;;;;;;;2.29;88.46;94637.53;1726874;82;21401;-81
2021/11/28 00:51:48;;;;;;;184.85;84.03;;;;;;;2.31;88.28;94647.12;1727183;82;20992;-82
2021/11/28 00:54:04;;;;;;;150.45;71.65;;;;;;;2.27;88.18;94648.90;1726628;82;21442;-81
2021/11/28 00:56:30;;;;;;;155.85;79.80;;;;;;;2.23;88.20;94660.47;1730433;82;21012;-82
2021/11/28 00:58:56;;;;;;;209.57;97.22;;;;;;;2.19;88.21;94661.30;1734596;82;21330;-81
2021/11/28 01:01:22;;;;;;;135.10;70.30;;;;;;;2.19;88.11;94663.87;1733455;82;21475;-81
2021/11/28 01:03:47;;;;;;;127.92;67.60;;;;;;;2.21;88.05;94668.81;1727604;82;20983;-82
2021/11/28 01:06:13;;;;;;;125.40;67.75;;;;;;;2.17;87.75;94669.66;1733249;82;21082;-82
2021/11/28 01:08:39;;;;;;;110.57;64.30;;;;;;;2.15;87.73;94672.08;1735357;82;20964;-82
2021/11/28 01:11:05;;;;;;;127.22;73.28;;;;;;;2.14;87.83;94682.02;1726882;82;21437;-82
2021/11/28 01:13:31;;;;;;;113.95;62.85;;;;;;;2.10;87.98;94688.73;1736444;82;21350;-82
2021/11/28 01:15:57;;;;;;;125.85;69.60;;;;;;;2.06;88.06;94702.86;1737135;82;20977;-81
2021/11/28 01:18:23;;;;;;;125.60;71.55;;;;;;;2.03;88.11;94698.57;1731435;82;21029;-81
2021/11/28 01:20:51;;;;;;;145.20;82.35;;;;;;;1.95;87.90;94702.45;1737263;82;21083;-82
2021/11/28 01:23:17;;;;;;;112.65;66.97;;;;;;;1.89;88.05;94701.86;1731662;82;21395;-81
2021/11/28 01:25:43;;;;;;;92.47;59.00;;;;;;;1.88;88.05;94702.83;1728410;82;21421;-82
2021/11/28 01:28:08;;;;;;;102.05;61.83;;;;;;;1.85;88.14;94696.28;1728139;82;21066;-82
2021/11/28 01:30:34;;;;;;;108.03;57.03;;;;;;;1.84;88.45;94706.70;1729487;82;20987;-82
2021/11/28 01:33:00;;;;;;;120.57;61.48;;;;;;;1.78;88.22;94705.10;1731627;82;21062;-82
2021/11/28 01:35:26;;;;;;;98.62;59.53;;;;;;;1.70;88.30;94709.00;1726436;82;21016;-82
2021/11/28 01:37:51;;;;;;;90.10;55.33;;;;;;;1.64;88.58;94705.84;1735081;82;20981;-82
2021/11/28 01:40:20;;;;;;;99.92;58.52;;;;;;;1.57;88.55;94712.58;1743516;82;21382;-82
2021/11/28 01:42:56;;;;;;;98.92;58.40;;;;;;;1.54;88.82;94708.28;1740835;82;21011;-81
2021/11/28 01:45:25;;;;;;;96.10;56.18;;;;;;;1.53;89.19;94706.20;1756726;80;21154;-82
2021/11/28 01:47:53;;;;;;;95.22;54.83;;;;;;;1.56;89.28;94708.42;1741311;81;21011;-81
2021/11/28 01:50:22;;;;;;;87.33;52.80;;;;;;;1.56;89.32;94705.06;1743019;80;21196;-82
2021/11/28 01:52:48;;;;;;;87.30;51.55;;;;;;;1.61;89.52;94701.52;1747972;81;20986;-82
2021/11/28 01:55:20;;;;;;;95.03;53.55;;;;;;;1.67;89.72;94697.02;1743772;81;21293;-82
2021/11/28 01:57:46;;;;;;;100.22;55.23;;;;;;;1.71;89.88;94691.39;1762941;81;21034;-81
2021/11/28 02:00:16;;;;;;;92.97;52.15;;;;;;;1.77;89.97;94695.83;1736601;81;21050;-81
2021/11/28 02:02:42;;;;;;;82.08;50.92;;;;;;;1.84;90.01;94692.61;1778602;78;21062;-82
2021/11/28 02:05:09;;;;;;;85.20;51.92;;;;;;;1.85;89.70;94695.48;1768645;78;20959;-82
2021/11/28 02:07:34;;;;;;;90.77;51.77;;;;;;;1.88;89.74;94696.42;1777198;78;21045;-83
2021/11/28 02:10:00;;;;;;;91.63;52.43;;;;;;;1.93;89.86;94691.09;1781578;78;21083;-82
2021/11/28 02:12:29;;;;;;;89.32;50.90;;;;;;;1.97;89.68;94683.41;1789387;78;20999;-81
2021/11/28 02:14:54;;;;;;;104.07;51.65;;;;;;;2.01;89.68;94681.30;1778355;78;21021;-82
2021/11/28 02:17:19;;;;;;;90.53;51.42;;;;;;;2.05;89.80;94686.39;1777249;78;20955;-81
2021/11/28 02:19:45;;;;;;;88.70;51.05;;;;;;;2.09;89.82;94678.66;1795782;78;20913;-81
2021/11/28 02:22:11;;;;;;;84.17;49.45;;;;;;;2.07;89.58;94671.64;1776674;78;20983;-81
2021/11/28 02:24:37;;;;;;;87.70;51.08;;;;;;;2.07;89.43;94666.52;1772999;78;21397;-82
2021/11/28 02:27:03;;;;;;;83.95;50.20;;;;;;;2.09;89.35;94674.34;1763349;80;21010;-82
2021/11/28 02:29:28;;;;;;;91.02;53.65;;;;;;;2.13;89.31;94677.86;1756709;81;21046;-82
2021/11/28 02:31:54;;;;;;;84.15;46.55;;;;;;;2.15;89.53;94688.25;1754722;81;21140;-82
2021/11/28 02:34:21;;;;;;;100.60;46.77;;;;;;;2.17;89.39;94682.46;1763436;80;20984;-82
2021/11/28 02:36:53;;;;;;;89.03;46.75;;;;;;;2.15;89.28;94683.61;1768597;81;21377;-81
2021/11/28 02:39:22;;;;;;;80.00;45.78;;;;;;;2.07;89.00;94680.60;1756432;81;20975;-82
2021/11/28 02:41:49;;;;;;;78.60;44.90;;;;;;;2.01;88.98;94674.41;1752932;81;20987;-82
2021/11/28 02:44:16;;;;;;;83.92;46.08;;;;;;;2.00;89.15;94677.14;1745224;81;20947;-82
2021/11/28 02:46:42;;;;;;;75.90;43.70;;;;;;;2.02;89.29;94672.64;1732978;81;21079;-81
2021/11/28 02:49:09;;;;;;;82.55;46.25;;;;;;;2.04;89.20;94669.42;1728110;82;21023;-82
2021/11/28 02:51:36;;;;;;;88.80;43.70;;;;;;;2.05;89.30;94671.02;1736565;82;21010;-82
2021/11/28 02:54:03;;;;;;;77.90;41.42;;;;;;;2.06;89.39;94675.17;1716388;83;21067;-82
2021/11/28 02:56:29;;;;;;;71.65;41.48;;;;;;;2.09;89.63;94684.58;1736315;82;21010;-82
2021/11/28 02:58:55;;;;;;;67.53;38.80;;;;;;;2.10;89.58;94664.39;1738114;82;20971;-82
2021/11/28 03:01:21;;;;;;;62.60;36.95;;;;;;;2.12;89.47;94666.02;1736953;82;20972;-82
2021/11/28 03:03:49;;;;;;;64.77;36.42;;;;;;;2.09;89.35;94656.89;1735591;82;21433;-82
2021/11/28 03:06:15;;;;;;;64.47;38.50;;;;;;;2.15;89.21;94663.91;1724219;83;21060;-82
2021/11/28 03:08:41;;;;;;;60.48;36.28;;;;;;;2.17;89.29;94658.13;1716591;83;21046;-82
2021/11/28 03:11:09;;;;;;;60.95;36.20;;;;;;;2.17;89.20;94660.69;1731458;82;20967;-82
2021/11/28 03:13:38;;;;;;;61.28;34.40;;;;;;;2.13;89.25;94654.31;1730804;82;21018;-81
2021/11/28 03:16:10;;;;;;;51.70;30.15;;;;;;;2.10;89.22;94658.48;1734205;82;21555;-82
2021/11/28 03:18:36;;;;;;;;;;;;;;;2.10;89.22;94670.01;1736298;82;21331;-80
2021/11/28 03:21:10;;;;;;;50.80;28.02;;;;;;;2.10;89.28;94670.01;1733769;82;20097;-81
2021/11/28 03:23:36;;;;;;;44.40;24.85;;;;;;;2.10;89.23;94670.01;1727249;82;21011;-81
2021/11/28 03:26:18;;;;;;;43.55;24.63;;;;;;;2.10;89.20;94666.96;1715736;83;21432;-81
2021/11/28 03:28:49;;;;;;;43.98;25.97;;;;;;;2.11;89.17;94669.03;1739933;82;21343;-81
2021/11/28 03:31:16;;;;;;;44.55;26.40;;;;;;;2.09;89.24;94656.89;1728642;82;21412;-80
2021/11/28 03:33:41;;;;;;;43.92;24.87;;;;;;;2.10;89.38;94665.68;1723804;82;21434;-80
2021/11/28 03:36:08;;;;;;;44.65;24.85;;;;;;;2.09;89.34;94670.98;1729613;82;20952;-81
2021/11/28 03:38:34;;;;;;;37.60;22.85;;;;;;;2.09;89.34;94670.49;1749049;80;20994;-80
2021/11/28 03:41:00;;;;;;;37.98;22.95;;;;;;;2.12;89.47;94670.66;1718000;83;21091;-81
2021/11/28 03:43:26;;;;;;;41.95;24.02;;;;;;;2.16;89.35;94668.06;1734199;80;21423;-81
2021/11/28 03:45:52;;;;;;;36.15;22.50;;;;;;;2.17;89.13;94668.86;1756318;78;20979;-81
2021/11/28 03:48:20;;;;;;;40.55;24.70;;;;;;;2.16;89.07;94666.78;1777266;78;21051;-81
2021/11/28 03:50:45;;;;;;;42.55;25.08;;;;;;;2.19;89.38;94653.62;1770402;78;20989;-80
2021/11/28 03:53:11;;;;;;;42.43;22.75;;;;;;;2.26;89.54;94649.38;1782413;80;21038;-81
2021/11/28 03:55:37;;;;;;;40.95;22.13;;;;;;;2.29;89.52;94637.53;1763550;80;20948;-81
2021/11/28 03:58:06;;;;;;;42.85;23.73;;;;;;;2.30;89.23;94647.30;1789737;78;20965;-81
2021/11/28 04:00:32;;;;;;;35.68;22.20;;;;;;;2.31;89.22;94642.48;1799616;78;21026;-81
2021/11/28 04:02:58;;;;;;;37.10;21.57;;;;;;;2.30;89.05;94648.58;1772358;80;21074;-81
2021/11/28 04:05:23;;;;;;;33.48;19.25;;;;;;;2.30;88.98;94648.09;1776724;78;21978;-81
2021/11/28 04:07:49;;;;;;;36.17;22.50;;;;;;;2.31;88.96;94645.84;1802068;78;20968;-81
2021/11/28 04:10:15;;;;;;;40.43;23.32;;;;;;;2.32;88.93;94638.46;1755793;80;20952;-81
2021/11/28 04:12:41;;;;;;;35.65;20.57;;;;;;;2.34;89.04;94632.67;1779402;78;21342;-81
2021/11/28 04:15:09;;;;;;;40.40;22.42;;;;;;;2.34;89.01;94622.91;1795907;78;21324;-81
2021/11/28 04:17:35;;;;;;;39.88;21.30;;;;;;;2.35;89.17;94618.09;1789132;78;21401;-81
2021/11/28 04:20:01;;;;;;;37.95;21.05;;;;;;;2.34;88.76;94604.97;1763342;80;21017;-81
2021/11/28 04:22:27;;;;;;;32.85;20.05;;;;;;;2.34;88.76;94604.97;1778639;78;21035;-81
2021/11/28 04:24:53;;;;;;;37.35;22.45;;;;;;;2.35;88.80;94602.22;1779973;78;21544;-80
2021/11/28 04:27:19;;;;;;;37.38;22.00;;;;;;;2.34;88.73;94600.63;1775040;78;20991;-81
2021/11/28 04:29:44;;;;;;;34.85;21.33;;;;;;;2.37;88.65;94601.56;1768671;78;20999;-81
2021/11/28 04:32:11;;;;;;;37.67;22.37;;;;;;;2.38;88.68;94599.80;1761098;78;21382;-81
2021/11/28 04:34:37;;;;;;;42.33;24.87;;;;;;;2.32;88.44;94597.94;1768066;78;21470;-81
2021/11/28 04:37:04;;;;;;;40.55;24.25;;;;;;;2.28;88.46;94590.30;1759997;80;21003;-81
2021/11/28 04:39:30;;;;;;;39.35;23.40;;;;;;;2.22;88.42;94589.20;1781987;78;21355;-80
2021/11/28 04:41:55;;;;;;;35.43;20.70;;;;;;;2.22;88.61;94594.81;1775226;80;21054;-81
2021/11/28 04:44:23;;;;;;;29.18;20.05;;;;;;;2.22;88.54;94594.33;1762165;78;21425;-81
2021/11/28 04:46:50;;;;;;;33.48;20.57;;;;;;;2.20;88.32;94596.27;1784983;78;20963;-81
2021/11/28 04:49:16;;;;;;;32.53;18.80;;;;;;;2.18;88.29;94598.22;1763289;80;21053;-80
2021/11/28 04:51:42;;;;;;;29.82;18.48;;;;;;;2.18;88.48;94596.14;1774893;78;20994;-81
2021/11/28 04:54:08;;;;;;;28.83;18.17;;;;;;;2.15;88.36;94597.77;1771344;78;20995;-80
2021/11/28 04:56:34;;;;;;;27.82;17.52;;;;;;;2.10;88.56;94599.06;1773623;78;21110;-81
2021/11/28 04:59:00;;;;;;;33.85;18.70;;;;;;;2.09;88.68;94604.36;1791255;78;21025;-81
2021/11/28 05:01:26;;;;;;;31.02;18.05;;;;;;;2.07;88.67;94609.66;1773266;78;20951;-81
2021/11/28 05:03:51;;;;;;;33.67;19.98;;;;;;;2.07;88.71;94611.43;1764544;78;21010;-81
2021/11/28 05:06:17;;;;;;;31.27;18.92;;;;;;;2.07;88.73;94614.78;1797198;78;21335;-80
2021/11/28 05:08:43;;;;;;;31.25;18.25;;;;;;;2.03;88.60;94614.03;1769389;78;20931;-81
2021/11/28 05:11:09;;;;;;;30.43;18.62;;;;;;;2.05;88.80;94612.09;1776350;78;21071;-81
2021/11/28 05:13:35;;;;;;;27.45;16.80;;;;;;;2.01;88.63;94609.08;1763459;80;21007;-81
2021/11/28 05:16:01;;;;;;;31.70;18.60;;;;;;;1.98;88.72;94600.95;1782027;78;20991;-81
2021/11/28 05:18:27;;;;;;;33.02;17.87;;;;;;;1.99;89.02;94589.73;1781394;78;21030;-81
2021/11/28 05:20:52;;;;;;;29.90;18.57;;;;;;;2.01;88.87;94587.31;1768058;78;21055;-80
2021/11/28 05:23:19;;;;;;;31.75;19.30;;;;;;;2.03;88.80;94587.13;1778783;78;21089;-81
2021/11/28 05:25:45;;;;;;;30.25;18.00;;;;;;;2.05;88.83;94582.63;1762292;78;21361;-80
2021/11/28 05:28:12;;;;;;;31.10;18.27;;;;;;;2.05;88.89;94575.73;1771915;78;21007;-80
2021/11/28 05:30:38;;;;;;;30.95;18.65;;;;;;;2.07;88.94;94584.05;1770643;78;21035;-81
2021/11/28 05:33:03;;;;;;;32.88;17.98;;;;;;;2.09;88.95;94583.87;1754766;80;21036;-81
2021/11/28 05:35:29;;;;;;;27.02;17.15;;;;;;;2.09;88.78;94590.27;1773133;78;21042;-80
2021/11/28 05:37:55;;;;;;;30.50;18.65;;;;;;;2.05;88.40;94586.47;1778283;78;20994;-81
2021/11/28 05:40:21;;;;;;;32.15;19.45;;;;;;;1.95;88.25;94576.48;1772615;78;21047;-81
2021/11/28 05:42:50;;;;;;;34.75;19.52;;;;;;;2.02;88.41;94583.78;1763625;80;20959;-81
2021/11/28 05:45:16;;;;;;;36.10;20.48;;;;;;;2.02;88.35;94586.34;1782940;78;21426;-81
2021/11/28 05:47:42;;;;;;;39.20;21.77;;;;;;;2.01;88.35;94586.52;1745940;80;20964;-81
2021/11/28 05:50:08;;;;;;;33.78;20.45;;;;;;;2.00;88.42;94581.08;1763614;80;21046;-80
2021/11/28 05:52:35;;;;;;;28.65;18.48;;;;;;;1.96;88.28;94581.91;1777323;78;20926;-80
2021/11/28 05:55:03;;;;;;;27.87;16.93;;;;;;;1.96;88.31;94581.13;1794625;80;21025;-81
2021/11/28 05:57:28;;;;;;;31.37;18.35;;;;;;;1.94;88.00;94575.34;1793573;78;21010;-81
2021/11/28 05:59:54;;;;;;;28.17;17.50;;;;;;;1.93;88.07;94568.63;1793134;78;20998;-81
2021/11/28 06:02:20;;;;;;;27.50;17.77;;;;;;;1.92;88.10;94565.77;1778668;78;21318;-81
2021/11/28 06:04:46;;;;;;;26.93;17.50;;;;;;;1.91;87.94;94564.17;1769992;78;20995;-80
2021/11/28 06:07:12;;;;;;;29.40;17.67;;;;;;;1.82;87.71;94562.66;1771927;80;21326;-81
2021/11/28 06:09:37;;;;;;;24.85;14.47;;;;;;;1.82;87.71;94562.66;1788718;80;21019;-80
2021/11/28 06:12:04;;;;;;;27.90;16.05;;;;;;;1.78;87.75;94554.02;1787093;80;20940;-80
2021/11/28 06:14:30;;;;;;;23.35;14.78;;;;;;;1.77;87.75;94549.08;1759099;81;21410;-81
2021/11/28 06:16:56;;;;;;;24.07;14.70;;;;;;;1.78;87.76;94553.22;1749103;81;21036;-81
2021/11/28 06:19:22;;;;;;;26.62;16.37;;;;;;;1.78;87.65;94565.55;1777779;80;21338;-80
2021/11/28 06:21:48;;;;;;;24.80;16.10;;;;;;;1.76;87.80;94563.64;1786322;80;21314;-80
2021/11/28 06:24:15;;;;;;;22.85;15.88;;;;;;;1.75;87.84;94569.73;1779017;80;21058;-80
2021/11/28 06:26:40;;;;;;;22.77;15.10;;;;;;;1.74;87.90;94564.30;1781314;80;21074;-81
2021/11/28 06:29:06;;;;;;;23.10;15.28;;;;;;;1.72;87.97;94562.88;1787481;80;21042;-81
2021/11/28 06:31:32;;;;;;;23.65;14.90;;;;;;;1.70;87.91;94566.90;1775790;80;20948;-81
2021/11/28 06:33:58;;;;;;;22.45;14.95;;;;;;;1.70;88.00;94569.45;1766033;80;20995;-81
2021/11/28 06:36:23;;;;;;;21.00;14.18;;;;;;;1.71;88.04;94571.05;1770702;80;21291;-81
2021/11/28 06:38:49;;;;;;;18.73;13.48;;;;;;;1.69;88.15;94558.91;1776758;80;21417;-81
2021/11/28 06:41:15;;;;;;;23.42;15.18;;;;;;;1.76;88.42;94557.23;1747476;81;21051;-80
2021/11/28 06:43:42;;;;;;;17.32;13.65;;;;;;;1.82;88.49;94563.45;1773431;80;20951;-80
2021/11/28 06:46:09;;;;;;;23.47;16.20;;;;;;;1.82;88.53;94554.50;1777585;80;21409;-81
2021/11/28 06:48:35;;;;;;;24.45;15.55;;;;;;;1.84;88.68;94552.55;1769102;80;21430;-80
2021/11/28 06:51:00;;;;;;;24.63;16.02;;;;;;;1.89;88.70;94557.15;1801327;79;21052;-81
2021/11/28 06:53:27;;;;;;;27.15;17.80;;;;;;;1.92;88.69;94552.95;1767885;80;21347;-81
2021/11/28 06:55:52;;;;;;;28.10;17.52;;;;;;;1.98;88.77;94547.16;1776571;80;21063;-80
2021/11/28 06:58:20;;;;;;;27.15;18.42;;;;;;;2.03;88.90;94541.81;1774626;80;21061;-81
2021/11/28 07:00:47;;;;;;;31.87;18.60;;;;;;;2.10;88.97;94547.83;1763386;80;21414;-81
2021/11/28 07:03:12;;;;;;;28.90;19.60;;;;;;;2.14;88.79;94556.47;1763475;80;21444;-81
2021/11/28 07:05:42;;;;;;;34.00;21.15;;;;;;;2.11;88.59;94555.02;1774151;79;20956;-80
2021/11/28 07:08:06;;;;;;;31.05;19.55;;;;;;;2.11;88.59;94555.02;1775111;80;21334;-80
2021/11/28 07:10:32;;;;;;;35.55;20.60;;;;;;;2.07;88.43;94554.58;1795068;78;21004;-83
2021/11/28 07:12:58;;;;;;;31.05;20.30;;;;;;;2.05;88.40;94556.53;1768312;80;21066;-80
2021/11/28 07:15:24;;;;;;;30.75;18.55;;;;;;;2.07;88.41;94556.35;1772827;78;21068;-81
2021/11/28 07:17:49;;;;;;;29.40;19.67;;;;;;;2.08;88.49;94544.64;1774081;79;21405;-81
2021/11/28 07:20:15;;;;;;;30.85;19.62;;;;;;;2.08;88.49;94544.64;1768464;80;21038;-81
2021/11/28 07:22:41;;;;;;;35.20;21.27;;;;;;;2.10;88.74;94536.78;1797439;78;20999;-81
2021/11/28 07:25:08;;;;;;;30.10;18.70;;;;;;;2.08;88.61;94533.11;1789420;80;20923;-80
2021/11/28 07:27:34;;;;;;;32.58;19.92;;;;;;;2.04;88.55;94528.03;1744783;80;21005;-81
2021/11/28 07:30:01;;;;;;;29.55;18.10;;;;;;;2.12;88.52;94532.80;1746163;80;21049;-87
2021/11/28 07:32:26;;;;;;;27.80;18.32;;;;;;;2.13;88.29;94530.54;1749305;80;21051;-80
2021/11/28 07:34:52;;;;;;;28.38;17.15;;;;;;;2.16;88.26;94530.19;1753321;80;20994;-81
2021/11/28 07:37:18;;;;;;;25.23;16.35;;;;;;;2.11;88.25;94516.59;1752209;80;20977;-81
2021/11/28 07:39:44;;;;;;;23.73;15.35;;;;;;;2.15;88.25;94519.14;1750566;80;21034;-80
2021/11/28 07:42:09;;;;;;;22.35;15.20;;;;;;;2.10;88.37;94518.36;1749170;80;20992;-81
2021/11/28 07:44:35;;;;;;;22.05;13.68;;;;;;;2.10;88.56;94511.16;1771265;80;21346;-80
2021/11/28 07:47:02;;;;;;;19.90;12.23;;;;;;;2.11;88.61;94506.34;1766100;80;21066;-80
2021/11/28 07:49:29;;;;;;;20.02;10.68;;;;;;;2.14;88.75;94504.73;1785046;78;21003;-81
2021/11/28 07:51:55;;;;;;;17.50;12.73;;;;;;;2.19;88.70;94499.88;1766477;80;21338;-80
2021/11/28 07:54:21;;;;;;;22.00;15.60;;;;;;;2.22;88.74;94496.95;1768409;78;20991;-80
2021/11/28 07:56:47;;;;;;;22.13;15.90;;;;;;;2.17;88.54;94506.95;1766349;80;21467;-80
2021/11/28 07:59:13;;;;;;;27.27;19.60;;;;;;;2.20;88.90;94510.92;1766373;80;21034;-81
2021/11/28 08:01:39;;;;;;;26.87;18.50;;;;;;;2.24;89.05;94504.46;1793047;78;21475;-80
2021/11/28 08:04:05;;;;;;;27.10;18.25;;;;;;;2.23;89.00;94510.08;1784354;78;21027;-80
2021/11/28 08:06:31;;;;;;;23.52;16.82;;;;;;;2.27;89.22;94518.20;1793320;78;20976;-80
2021/11/28 08:08:56;;;;;;;24.12;17.85;;;;;;;2.33;89.51;94513.19;1762467;80;21338;-80
2021/11/28 08:11:22;;;;;;;25.85;18.73;;;;;;;2.43;89.70;94512.11;1781277;78;21357;-80
2021/11/28 08:13:48;;;;;;;26.55;19.07;;;;;;;2.48;89.42;94518.80;1780946;78;21049;-80
2021/11/28 08:16:15;;;;;;;28.77;18.65;;;;;;;2.55;89.80;94514.54;1786248;80;21037;-80
2021/11/28 08:18:41;;;;;;;29.37;20.80;;;;;;;2.62;89.92;94511.11;1772616;80;21003;-80
2021/11/28 08:21:07;;;;;;;30.70;20.72;;;;;;;2.67;90.03;94512.64;1767511;80;21003;-80
2021/11/28 08:23:35;;;;;;;28.00;19.73;;;;;;;2.75;89.86;94513.02;1756290;80;21413;-80
2021/11/28 08:26:01;;;;;;;21.37;16.93;;;;;;;2.82;89.82;94510.06;1754184;80;21021;-80
2021/11/28 08:28:26;;;;;;;23.87;17.82;;;;;;;2.89;89.88;94513.48;1749051;81;21465;-80
2021/11/28 08:30:52;;;;;;;29.65;19.48;;;;;;;2.94;89.69;94508.63;1731382;81;21062;-80
2021/11/28 08:33:18;;;;;;;26.42;18.30;;;;;;;3.04;89.97;94511.38;1755315;81;21092;-80
2021/11/28 08:35:44;;;;;;;27.55;18.70;;;;;;;3.11;90.09;94508.41;1752264;81;20936;-80
2021/11/28 08:38:09;;;;;;;29.48;19.02;;;;;;;3.20;90.29;94508.59;1792041;78;20975;-81
2021/11/28 08:40:37;;;;;;;31.50;20.92;;;;;;;3.25;89.99;94508.83;1747786;81;21409;-79
2021/11/28 08:43:05;;;;;;;32.98;21.85;;;;;;;3.29;89.96;94500.60;1752384;81;21947;-79
2021/11/28 08:45:32;;;;;;;32.42;22.32;;;;;;;3.38;89.39;94515.88;1734059;81;21022;-79
2021/11/28 08:48:00;;;;;;;34.33;24.45;;;;;;;3.41;88.87;94511.16;1782383;80;21091;-79
2021/11/28 08:50:26;;;;;;;40.73;28.15;;;;;;;3.44;89.37;94507.45;1761973;81;20995;-79
2021/11/28 08:52:52;;;;;;;45.43;32.67;;;;;;;3.51;90.17;94509.09;1761358;81;21007;-80
2021/11/28 08:55:18;;;;;;;48.20;31.42;;;;;;;3.57;89.87;94512.69;1778903;81;20975;-80
2021/11/28 08:57:45;;;;;;;42.10;30.15;;;;;;;3.55;89.45;94509.03;1779038;78;21568;-80
2021/11/28 09:00:12;;;;;;;39.67;26.42;;;;;;;3.64;89.33;94508.42;1764833;80;21519;-80
2021/11/28 09:02:38;;;;;;;48.68;29.92;;;;;;;3.60;88.67;94503.36;1787200;80;21106;-80
2021/11/28 09:05:05;;;;;;;45.60;30.62;;;;;;;3.46;88.60;94489.61;1798046;80;21097;-80
2021/11/28 09:07:32;;;;;;;49.60;31.73;;;;;;;3.45;89.01;94487.22;1775674;78;20964;-81
2021/11/28 09:09:57;;;;;;;48.80;31.97;;;;;;;3.49;89.17;94492.29;1790331;80;20898;-79
2021/11/28 09:12:23;;;;;;;47.50;31.30;;;;;;;3.56;89.39;94490.06;1795283;79;20996;-79
2021/11/28 09:14:49;;;;;;;41.08;27.70;;;;;;;3.62;89.09;94480.85;1770308;79;21366;-79
2021/11/28 09:17:16;;;;;;;48.87;32.55;;;;;;;3.59;88.04;94485.08;1766317;80;21018;-79
2021/11/28 09:19:56;;;;;;;52.98;36.20;;;;;;;3.49;88.39;94485.87;1766278;80;21035;-80
2021/11/28 09:22:24;;;;;;;54.85;36.30;;;;;;;3.53;88.73;94483.23;1765572;80;21014;-79
2021/11/28 09:24:47;;;;;;;56.92;36.00;;;;;;;3.57;89.00;94477.53;1794639;80;21001;-79
2021/11/28 09:27:13;;;;;;;54.58;35.55;;;;;;;3.55;88.87;94480.78;1773403;79;21011;-79
2021/11/28 09:29:43;;;;;;;51.65;33.92;;;;;;;3.52;88.54;94476.02;1766366;80;21405;-80
2021/11/28 09:32:09;;;;;;;53.13;35.68;;;;;;;3.55;89.17;94471.80;1778324;79;21043;-79
2021/11/28 09:34:36;;;;;;;52.43;34.95;;;;;;;3.63;89.06;94475.23;1773446;80;21039;-79
2021/11/28 09:37:01;;;;;;;52.27;35.95;;;;;;;3.66;88.86;94465.38;1765713;80;21082;-79
2021/11/28 09:39:28;;;;;;;51.77;35.40;;;;;;;3.66;88.93;94461.52;1766432;80;21359;-79
2021/11/28 09:42:00;;;;;;;49.58;33.23;;;;;;;3.71;89.36;94458.38;1774576;78;20983;-79
2021/11/28 09:44:28;;;;;;;55.63;36.28;;;;;;;3.65;88.56;94461.22;1785853;80;20979;-79
2021/11/28 09:46:55;;;;;;;58.30;38.55;;;;;;;3.55;88.67;94460.23;1782840;79;21011;-79
2021/11/28 09:49:27;;;;;;;58.02;38.15;;;;;;;3.59;89.03;94452.98;1763186;80;21038;-79
2021/11/28 09:52:00;;;;;;;52.62;32.73;;;;;;;3.65;89.16;94449.66;1793550;78;21052;-79
2021/11/28 09:54:25;;;;;;;57.10;37.75;;;;;;;3.70;89.43;94441.39;1791371;78;20958;-79
2021/11/28 09:56:51;;;;;;;58.35;38.92;;;;;;;3.68;89.06;94428.73;1794695;80;20996;-80
2021/11/28 09:59:17;;;;;;;61.23;41.48;;;;;;;3.66;89.34;94419.63;1763765;80;21083;-79
2021/11/28 10:01:43;;;;;;;64.40;39.98;;;;;;;3.68;89.58;94420.23;1794608;80;20961;-80
2021/11/28 10:04:09;;;;;;;58.98;36.95;;;;;;;3.68;89.58;94420.23;1794376;79;20980;-79
2021/11/28 10:06:34;;;;;;;61.63;41.33;;;;;;;3.72;89.83;94415.02;1778169;79;20971;-79
2021/11/28 10:09:04;;;;;;;55.38;34.27;;;;;;;3.77;89.96;94413.50;1782410;78;21020;-79
2021/11/28 10:11:55;;;;;;;57.70;40.05;;;;;;;3.85;89.76;94405.63;1786711;80;20994;-79
2021/11/28 10:14:21;;;;;;;51.25;33.18;;;;;;;3.88;89.74;94408.31;1747451;80;21067;-79
2021/11/28 10:16:47;;;;;;;47.67;32.42;;;;;;;3.87;89.20;94401.09;1763441;80;21018;-80
2021/11/28 10:19:13;;;;;;;58.50;37.50;;;;;;;3.83;89.42;94397.81;1755982;80;21008;-79
2021/11/28 10:21:39;;;;;;;56.85;39.27;;;;;;;3.81;89.73;94399.28;1792650;78;20982;-80
2021/11/28 10:24:16;;;;;;;63.08;38.40;;;;;;;3.87;90.12;94394.67;1763282;81;21438;-79
2021/11/28 10:27:05;;;;;;;54.98;36.20;;;;;;;3.94;89.90;94388.80;1768754;80;21433;-80
2021/11/28 10:29:37;;;;;;;52.88;36.25;;;;;;;3.93;89.39;94379.50;1777253;78;20955;-80
2021/11/28 10:32:06;;;;;;;58.75;39.85;;;;;;;3.98;89.90;94379.72;1777341;78;20974;-80
2021/11/28 10:34:41;;;;;;;58.87;36.20;;;;;;;4.03;89.89;94375.58;1782068;78;21564;-80
2021/11/28 10:37:15;;;;;;;59.77;37.48;;;;;;;4.06;89.92;94372.62;1773195;80;20955;-80
2021/11/28 10:39:57;;;;;;;56.75;38.05;;;;;;;4.08;89.95;94371.18;1782510;78;20993;-80
2021/11/28 10:42:29;;;;;;;56.02;35.15;;;;;;;4.12;89.64;94371.89;1791396;80;20993;-80
2021/11/28 10:45:11;;;;;;;58.55;37.90;;;;;;;4.19;89.76;94368.05;1773366;80;20992;-80
2021/11/28 10:47:49;;;;;;;58.52;38.98;;;;;;;4.20;89.25;94369.63;1788631;79;21059;-80
2021/11/28 10:50:33;;;;;;;57.83;39.78;;;;;;;4.21;89.60;94366.87;1772912;80;21030;-81
2021/11/28 10:53:15;;;;;;;55.65;38.08;;;;;;;4.24;89.61;94353.36;1787582;80;21517;-80
2021/11/28 10:55:44;;;;;;;56.35;39.88;;;;;;;4.22;89.50;94350.45;1765698;80;20967;-79
2021/11/28 10:58:25;;;;;;;51.88;33.88;;;;;;;4.25;89.73;94355.73;1774530;80;21012;-80
2021/11/28 11:00:57;;;;;;;55.63;38.17;;;;;;;4.26;89.27;94353.95;1787893;80;20968;-80
2021/11/28 11:03:36;;;;;;;59.18;42.27;;;;;;;4.19;88.84;94359.05;1790167;80;21016;-80
2021/11/28 11:06:27;;;;;;;59.88;39.78;;;;;;;4.17;89.14;94348.17;1782511;80;21408;-80
2021/11/28 11:08:55;;;;;;;64.87;42.53;;;;;;;4.13;89.14;94353.41;1785918;80;21068;-80
2021/11/28 11:11:21;;;;;;;75.52;47.75;;;;;;;4.08;89.18;94353.98;1792794;80;21467;-80
2021/11/28 11:14:02;;;;;;;66.50;45.65;;;;;;;4.03;89.24;94344.75;1797046;80;21419;-80
2021/11/28 11:16:42;;;;;;;70.70;46.18;;;;;;;3.97;89.05;94344.23;1790345;80;21369;-80
2021/11/28 11:19:38;;;;;;;60.03;43.15;;;;;;;3.94;89.06;94334.34;1782089;80;21500;-80
2021/11/28 11:22:17;;;;;;;60.12;43.42;;;;;;;3.90;88.97;94326.69;1787903;80;21069;-80
2021/11/28 11:24:46;;;;;;;63.52;44.45;;;;;;;3.86;89.15;94325.49;1772455;80;21043;-80
2021/11/28 11:27:18;;;;;;;64.85;44.27;;;;;;;3.80;89.06;94318.06;1769302;80;21058;-80
2021/11/28 11:29:49;;;;;;;63.08;43.63;;;;;;;3.79;89.33;94317.77;1796765;80;21008;-80
2021/11/28 11:32:19;;;;;;;59.35;42.67;;;;;;;3.75;89.22;94310.64;1792357;80;21029;-80
2021/11/28 11:34:56;;;;;;;65.50;42.65;;;;;;;3.76;89.44;94310.94;1764558;80;21074;-80